Madawaska, ME

5:42 AM EST on January 31, 2015 (GMT -0500)
Northern Aroostook Regional | Change Station
CLOSE
Current Station
Airport
Location: Frenchville,
Elevation: 988 ft
Nearby Weather Stations
Active Advisory: Winter Storm Warning

Elev 988 ft 47.29 °N, 68.31 °W | Updated 27 minutes ago

Snow
Snow
6 °F
Feels Like -13 °F
N
17
Wind Variable Wind from NNW

Today
High -- | Low -- °F
--% Chance of Precip.
Yesterday
High -- | Low -- °F
Precip. -- in
7:00 AM 4:33 PM
Waxing Gibbous, 89% visible
Pressure 29.77 in
Visibility 2.0 miles
Clouds Overcast 1900 ft
Windchill -13 °F
Dew Point 1 °F
Humidity 80%
Rainfall 0.00 in
Snow Depth Not available.
UV 0 out of 12
Pollen .10 out of 12
Air Quality Not available.
Flu Activity Not available.
SPECI KFVE 311015Z AUTO 33015KT 2SM -SN OVC019 M14/M17 A2977 RMK AO2 P0000 T11441172

More Conditions Fewer Conditions

Pressure 29.77 in
Visibility 2.0 miles
Clouds Overcast 1900 ft
Windchill -13 °F
Dew Point 1 °F
Humidity 80%
Rainfall 0.00 in
Snow Depth Not available.
UV 0 out of 12
Pollen .10 out of 12
Air Quality Not available.
Flu Activity Not available.
SPECI KFVE 311015Z AUTO 33015KT 2SM -SN OVC019 M14/M17 A2977 RMK AO2 P0000 T11441172

More Conditions Fewer Conditions

10-Day Weather Forecast

Almanac

Astronomy

Jan. 31, 2015 Rise Set
Actual Time
Civil Twilight
Nautical Twilight
Astronomical Twilight
Moon
Length of Visible Light
Length of Day
Tomorrow will be .
, % of the Moon is Illuminated

Today's Extremes

State Highs State Lows

Community

WunderPhotos

Upload Photos

1,792,031 photos uploaded!

WunderBlogs® & News

Nearby

Air Quality

  Air Quality AQ Index Pollutant
Not available.

Snow Depth

Station Depth Elevation

Earthquake Activity

City Distance Mag. Time & Date
Minimum magnitude displayed is 2.5.

Coastal Water Temperatures

Place Temperature

Nearby Weather Stations